KRDG/RDG METAR and TAF weather

Enter ICAO airport designator
Station Type Date Time Source
KRDG METAR 2019/08/25 14:54 UTC NOAA

KRDG 251454Z 08010KT 10SM FEW060 22/14 A3025 RMK AO2 SLP248 T02220139 58005 $


Station Type Date Time Source
KRDG Decoded METAR 2019/08/25 14:54 UTC NOAA

Station name not available
Aug 25, 2019 - 10:54 AM EDT / 2019.08.25 1454 UTC
Wind: from the E (080 degrees) at 12 MPH (10 KT):0
Visibility: 10 mile(s):0
Sky conditions: mostly clear
Temperature: 72.0 F (22.2 C)
Dew Point: 57.0 F (13.9 C)
Relative Humidity: 59%
Pressure (altimeter): 30.25 in. Hg (1024 hPa)
Pressure tendency: 0.01 inches (0.5 hPa) lower than three hours ago
ob: KRDG 251454Z 08010KT 10SM FEW060 22/14 A3025 RMK AO2 SLP248 T02220139 58005
cycle: 15

Station Type Date Time Source
KRDG TAF 2019/08/25 12:22 UTC NOAA

TAF KRDG 251120Z 2512/2612 03008KT P6SM SCT060
FM251800 07008KT P6SM BKN050

Example: see airport list